createdAt,value
2018-01-27T00:00:56.502Z,1.10
2018-01-27T00:03:24.349Z,1.57
2018-01-27T00:05:52.179Z,1.80
2018-01-27T00:08:20.009Z,2.23
2018-01-27T00:10:47.846Z,1.43
2018-01-27T00:13:15.680Z,1.20
2018-01-27T00:15:43.651Z,1.70
2018-01-27T00:18:11.482Z,1.47
2018-01-27T00:20:39.400Z,1.40
2018-01-27T00:23:07.246Z,1.30
2018-01-27T00:25:35.542Z,1.70
2018-01-27T00:28:03.416Z,1.20
2018-01-27T00:30:31.273Z,1.60
2018-01-27T00:32:59.092Z,1.20
2018-01-27T00:35:26.941Z,0.97
2018-01-27T00:37:54.842Z,0.90
2018-01-27T00:40:22.695Z,0.90
2018-01-27T00:42:50.538Z,1.03
2018-01-27T00:45:18.379Z,1.03
2018-01-27T00:47:46.202Z,0.90
2018-01-27T00:50:14.030Z,0.97
2018-01-27T00:52:42.621Z,0.83
2018-01-27T00:55:10.456Z,1.23
2018-01-27T00:57:38.290Z,1.00
2018-01-27T01:00:06.115Z,1.40
2018-01-27T01:02:33.985Z,1.00
2018-01-27T01:05:02.378Z,1.20
2018-01-27T01:07:30.221Z,1.83
2018-01-27T01:09:58.052Z,1.47
2018-01-27T01:12:25.894Z,1.20
2018-01-27T01:14:53.783Z,1.07
2018-01-27T01:17:21.610Z,1.40
2018-01-27T01:19:49.453Z,1.43
2018-01-27T01:22:17.281Z,1.10
2018-01-27T01:24:45.118Z,1.10
2018-01-27T01:27:12.931Z,1.07
2018-01-27T01:29:40.798Z,1.60
2018-01-27T01:32:08.652Z,1.20
2018-01-27T01:34:36.477Z,1.40
2018-01-27T01:37:04.327Z,1.17
2018-01-27T01:39:32.148Z,1.33
2018-01-27T01:41:59.978Z,1.30
2018-01-27T01:44:27.849Z,1.10
2018-01-27T01:46:55.667Z,1.17
2018-01-27T01:49:24.506Z,1.43
2018-01-27T01:51:52.422Z,1.43
2018-01-27T01:54:20.260Z,1.73
2018-01-27T01:56:48.074Z,1.60
2018-01-27T01:59:15.894Z,1.50
2018-01-27T02:01:43.782Z,1.00
2018-01-27T02:04:11.598Z,1.20
2018-01-27T02:06:39.422Z,1.23
2018-01-27T02:09:07.270Z,0.80
2018-01-27T02:11:35.106Z,1.30
2018-01-27T02:14:03.014Z,1.00
2018-01-27T02:16:32.498Z,1.10
2018-01-27T02:19:00.325Z,1.40
2018-01-27T02:21:28.170Z,1.43
2018-01-27T02:23:55.994Z,1.40
2018-01-27T02:26:23.845Z,1.10
2018-01-27T02:28:51.686Z,1.10
2018-01-27T02:31:19.506Z,1.60
2018-01-27T02:33:47.342Z,1.13
2018-01-27T02:36:15.180Z,1.07
2018-01-27T02:38:43.097Z,1.03
2018-01-27T02:41:11.007Z,1.50
2018-01-27T02:43:38.835Z,1.10
2018-01-27T02:46:06.673Z,1.10
2018-01-27T02:48:34.511Z,0.90
2018-01-27T02:51:03.270Z,1.03
2018-01-27T02:53:31.159Z,1.10
2018-01-27T02:55:59.097Z,1.10
2018-01-27T02:58:26.997Z,1.00
2018-01-27T03:00:54.839Z,0.83
2018-01-27T03:03:22.693Z,0.90
2018-01-27T03:05:50.533Z,0.70
2018-01-27T03:08:18.362Z,1.00
2018-01-27T03:10:51.182Z,1.00
2018-01-27T03:13:19.078Z,0.90
2018-01-27T03:15:47.719Z,0.90
2018-01-27T03:18:15.566Z,1.13
2018-01-27T03:20:43.468Z,1.17
2018-01-27T03:23:11.297Z,1.00
2018-01-27T03:25:51.038Z,1.17
2018-01-27T03:28:18.968Z,0.80
2018-01-27T03:30:46.870Z,0.77
2018-01-27T03:33:14.706Z,0.87
2018-01-27T03:35:42.547Z,1.17
2018-01-27T03:38:10.411Z,0.87
2018-01-27T03:40:38.255Z,0.73
2018-01-27T03:43:06.075Z,0.83
2018-01-27T03:45:33.983Z,1.13
2018-01-27T03:48:01.988Z,1.13
2018-01-27T03:50:29.831Z,0.80
2018-01-27T03:52:57.660Z,0.90
2018-01-27T03:55:25.498Z,0.83
2018-01-27T03:57:53.890Z,0.90
2018-01-27T04:00:21.752Z,1.03
2018-01-27T04:02:49.570Z,0.90
2018-01-27T04:05:17.386Z,0.90
2018-01-27T04:07:45.995Z,1.00
2018-01-27T04:10:14.794Z,0.93
2018-01-27T04:12:42.665Z,0.90
2018-01-27T04:15:11.274Z,1.00
2018-01-27T04:17:39.111Z,0.93
2018-01-27T04:20:06.943Z,0.87
2018-01-27T04:22:34.764Z,0.70
2018-01-27T04:25:02.678Z,0.67
2018-01-27T04:27:30.506Z,0.70
2018-01-27T04:29:58.339Z,1.10
2018-01-27T04:32:26.166Z,0.87
2018-01-27T04:34:54.038Z,1.03
2018-01-27T04:37:22.682Z,0.87
2018-01-27T04:39:50.511Z,0.77
2018-01-27T04:42:18.337Z,1.10
2018-01-27T04:44:46.178Z,1.20
2018-01-27T04:47:14.011Z,0.80
2018-01-27T04:49:41.851Z,1.63
2018-01-27T04:52:09.673Z,1.00
2018-01-27T04:54:37.502Z,0.97
2018-01-27T04:57:05.317Z,0.97
2018-01-27T04:59:33.194Z,1.30
2018-01-27T05:02:01.056Z,0.90
2018-01-27T05:04:28.878Z,1.67
2018-01-27T05:06:57.614Z,0.93
2018-01-27T05:09:25.437Z,0.70
2018-01-27T05:11:53.247Z,0.90
2018-01-27T05:14:21.837Z,0.73
2018-01-27T05:16:49.658Z,0.77
2018-01-27T05:19:17.497Z,1.03
2018-01-27T05:21:45.314Z,0.70
2018-01-27T05:24:13.182Z,0.93
2018-01-27T05:26:40.985Z,0.93
2018-01-27T05:29:08.818Z,0.70
2018-01-27T05:31:36.686Z,0.60
2018-01-27T05:34:04.510Z,0.80
2018-01-27T05:36:32.393Z,1.30
2018-01-27T05:39:00.215Z,0.80
2018-01-27T05:41:28.042Z,1.37
2018-01-27T05:44:02.835Z,0.80
2018-01-27T05:46:30.681Z,0.90
2018-01-27T05:48:58.586Z,0.67
2018-01-27T05:51:26.406Z,0.90
2018-01-27T05:53:54.249Z,1.40
2018-01-27T05:56:22.101Z,0.70
2018-01-27T05:58:50.004Z,0.97
2018-01-27T06:01:17.829Z,0.90
2018-01-27T06:03:45.665Z,0.57
2018-01-27T06:06:13.526Z,1.13
2018-01-27T06:08:41.423Z,1.00
2018-01-27T06:11:09.311Z,0.90
2018-01-27T06:13:37.134Z,0.80
2018-01-27T06:16:04.963Z,0.60
2018-01-27T06:18:32.910Z,1.07
2018-01-27T06:21:00.781Z,0.70
2018-01-27T06:23:28.738Z,1.00
2018-01-27T06:25:56.549Z,0.60
2018-01-27T06:28:24.372Z,0.73
2018-01-27T06:30:52.849Z,1.07
2018-01-27T06:33:20.705Z,1.00
2018-01-27T06:35:48.561Z,0.80
2018-01-27T06:38:16.395Z,1.20
2018-01-27T06:40:44.224Z,0.90
2018-01-27T06:43:12.143Z,0.80
2018-01-27T06:45:39.954Z,0.70
2018-01-27T06:48:07.775Z,2.40
2018-01-27T06:50:35.624Z,0.90
2018-01-27T06:53:03.467Z,0.90
2018-01-27T06:55:31.291Z,1.03
2018-01-27T06:57:59.137Z,1.20
2018-01-27T07:00:26.962Z,1.70
2018-01-27T07:02:59.224Z,1.57
2018-01-27T07:09:20.548Z,1.17
2018-01-27T07:12:00.533Z,0.93
2018-01-27T07:39:46.612Z,1.10
2018-01-27T07:42:15.790Z,0.87
2018-01-27T07:44:45.087Z,1.03
2018-01-27T07:47:15.140Z,0.87
2018-01-27T07:49:45.362Z,0.87
2018-01-27T07:52:18.440Z,1.43
2018-01-27T07:54:52.434Z,1.33
2018-01-27T07:57:25.486Z,1.17
2018-01-27T07:59:54.414Z,1.93
2018-01-27T08:30:57.086Z,1.40
2018-01-27T08:47:43.706Z,1.30
2018-01-27T08:53:40.530Z,1.40
2018-01-27T08:56:08.436Z,1.40
2018-01-27T08:58:36.312Z,1.13
2018-01-27T09:01:04.135Z,1.57
2018-01-27T09:03:32.062Z,1.67
2018-01-27T09:05:59.918Z,1.30
2018-01-27T09:08:28.498Z,1.37
2018-01-27T09:10:56.310Z,1.30
2018-01-27T09:13:24.130Z,1.33
2018-01-27T09:15:52.030Z,1.40
2018-01-27T09:18:20.163Z,1.10
2018-01-27T09:20:48.073Z,1.07
2018-01-27T09:26:49.042Z,1.40
2018-01-27T09:29:18.220Z,1.27
2018-01-27T09:31:47.431Z,1.50
2018-01-27T09:34:16.710Z,1.07
2018-01-27T09:36:47.178Z,1.12
2018-01-27T09:39:16.939Z,4.60
2018-01-27T09:41:46.150Z,83.20
2018-01-27T09:44:15.298Z,33.70
2018-01-27T09:46:45.462Z,49.80
2018-01-27T09:49:17.041Z,48.03
2018-01-27T09:51:48.237Z,21.20
2018-01-27T09:54:16.770Z,57.20
2018-01-27T09:56:44.706Z,23.17
2018-01-27T09:59:12.739Z,3.25
2018-01-27T10:01:40.600Z,2.47
2018-01-27T10:04:08.452Z,1.97
2018-01-27T10:06:36.339Z,1.50
2018-01-27T10:09:04.322Z,1.30
2018-01-27T10:11:32.177Z,1.30
2018-01-27T10:14:00.048Z,1.00
2018-01-27T10:16:28.573Z,1.10
2018-01-27T10:18:56.755Z,0.80
2018-01-27T10:21:24.565Z,1.30
2018-01-27T10:23:52.477Z,1.33
2018-01-27T10:26:20.298Z,1.67
2018-01-27T10:28:48.163Z,1.40
2018-01-27T10:31:16.096Z,0.90
2018-01-27T10:33:43.940Z,1.00
2018-01-27T10:36:11.826Z,1.62
2018-01-27T10:38:39.646Z,1.33
2018-01-27T10:41:08.246Z,1.17
2018-01-27T10:43:36.171Z,1.87
2018-01-27T10:46:04.006Z,1.30
2018-01-27T10:48:32.153Z,1.33
2018-01-27T10:51:00.829Z,1.87
2018-01-27T10:53:29.782Z,1.80
2018-01-27T10:55:57.610Z,2.27
2018-01-27T10:58:25.438Z,1.70
2018-01-27T11:01:21.389Z,1.70
2018-01-27T11:03:49.248Z,2.03
2018-01-27T11:06:58.689Z,1.87
2018-01-27T11:20:01.140Z,1.70
2018-01-27T11:22:28.984Z,1.70
2018-01-27T11:24:56.831Z,2.27
2018-01-27T11:27:24.956Z,1.60
2018-01-27T11:29:52.896Z,1.57
2018-01-27T11:32:20.741Z,1.07
2018-01-27T11:34:48.571Z,1.27
2018-01-27T11:37:16.402Z,1.13
2018-01-27T11:39:45.003Z,0.97
2018-01-27T11:42:12.887Z,1.40
2018-01-27T11:44:40.866Z,1.33
2018-01-27T11:47:08.697Z,1.20
2018-01-27T11:49:36.562Z,1.80
2018-01-27T11:52:04.402Z,1.20
2018-01-27T11:54:32.444Z,1.87
2018-01-27T11:57:00.278Z,1.57
2018-01-27T11:59:28.113Z,1.33
2018-01-27T12:01:55.946Z,0.97
2018-01-27T12:04:23.781Z,1.30
2018-01-27T12:06:51.687Z,1.40
2018-01-27T12:09:20.809Z,1.50
2018-01-27T12:11:49.485Z,1.03
2018-01-27T12:14:19.066Z,1.00
2018-01-27T12:16:47.123Z,1.07
2018-01-27T12:19:14.943Z,1.90
2018-01-27T12:21:43.684Z,1.87
2018-01-27T12:24:11.516Z,7.33
2018-01-27T12:26:39.348Z,23.60
2018-01-27T12:29:07.976Z,32.90
2018-01-27T12:31:35.807Z,29.13
2018-01-27T12:34:05.933Z,15.87
2018-01-27T12:36:34.625Z,29.13
2018-01-27T12:39:02.472Z,23.80
2018-01-27T12:41:31.116Z,17.93
2018-01-27T12:43:58.930Z,7.17
2018-01-27T12:46:27.516Z,12.60
2018-01-27T12:48:56.102Z,18.23
2018-01-27T12:51:23.996Z,10.20
2018-01-27T12:53:51.904Z,7.13
2018-01-27T12:56:19.777Z,7.93
2018-01-27T12:58:48.363Z,4.97
2018-01-27T13:01:16.957Z,5.83
2018-01-27T13:03:49.259Z,3.57
2018-01-27T13:06:17.217Z,8.60
2018-01-27T13:08:45.187Z,6.07
2018-01-27T13:11:13.049Z,4.67
2018-01-27T13:13:40.881Z,9.10
2018-01-27T13:16:08.703Z,10.00
2018-01-27T13:18:36.526Z,10.23
2018-01-27T13:21:05.111Z,7.67
2018-01-27T13:23:33.705Z,4.60
2018-01-27T13:26:01.578Z,4.97
2018-01-27T13:28:29.470Z,3.30
2018-01-27T13:30:57.307Z,3.53
2018-01-27T13:33:25.119Z,3.00
2018-01-27T13:35:52.946Z,3.70
2018-01-27T13:38:20.795Z,1.83
2018-01-27T13:40:48.625Z,5.30
2018-01-27T13:43:16.442Z,3.50
2018-01-27T13:45:44.389Z,4.97
2018-01-27T13:48:12.973Z,2.87
2018-01-27T13:50:41.586Z,1.97
2018-01-27T13:53:09.413Z,2.20
2018-01-27T13:55:37.997Z,1.70
2018-01-27T13:58:06.578Z,1.63
2018-01-27T14:00:35.157Z,1.80
2018-01-27T14:03:03.742Z,1.90
2018-01-27T14:05:32.350Z,2.27
2018-01-27T14:08:00.170Z,3.03
2018-01-27T14:10:28.782Z,3.70
2018-01-27T14:12:57.378Z,4.70
2018-01-27T14:15:25.218Z,4.90
2018-01-27T14:17:53.048Z,5.23
2018-01-27T14:20:20.920Z,3.07
2018-01-27T14:22:48.890Z,4.00
2018-01-27T14:25:16.754Z,3.00
2018-01-27T14:27:44.568Z,2.60
2018-01-27T14:30:14.446Z,3.53
2018-01-27T14:32:42.347Z,2.50
2018-01-27T14:35:10.975Z,1.40
2018-01-27T14:37:38.815Z,1.80
2018-01-27T14:40:06.651Z,2.00
2018-01-27T14:42:35.274Z,2.30
2018-01-27T14:45:04.210Z,2.50
2018-01-27T14:47:32.086Z,1.83
2018-01-27T14:50:00.695Z,1.70
2018-01-27T14:52:28.555Z,1.70
2018-01-27T14:54:57.226Z,1.70
2018-01-27T14:57:25.849Z,0.90
2018-01-27T14:59:54.465Z,1.33
2018-01-27T15:02:22.277Z,1.90
2018-01-27T15:04:50.098Z,1.40
2018-01-27T15:07:17.930Z,1.43
2018-01-27T15:09:45.733Z,1.17
2018-01-27T15:12:13.542Z,1.30
2018-01-27T15:14:41.434Z,2.10
2018-01-27T15:17:09.251Z,2.10
2018-01-27T15:19:37.912Z,2.07
2018-01-27T15:22:05.746Z,3.50
2018-01-27T15:24:33.583Z,3.97
2018-01-27T15:27:02.228Z,3.07
2018-01-27T15:29:30.074Z,3.50
2018-01-27T15:31:58.072Z,7.67
2018-01-27T15:34:25.905Z,2.00
2018-01-27T15:36:53.734Z,1.60
2018-01-27T15:39:22.365Z,1.47
2018-01-27T15:41:50.196Z,1.33
2018-01-27T15:44:18.038Z,1.77
2018-01-27T15:46:46.637Z,1.20
2018-01-27T15:49:14.472Z,1.20
2018-01-27T15:51:42.307Z,1.07
2018-01-27T15:54:10.126Z,1.83
2018-01-27T15:56:38.718Z,1.00
2018-01-27T15:59:06.555Z,1.30
2018-01-27T16:01:35.219Z,1.40
2018-01-27T16:04:03.069Z,2.13
2018-01-27T16:06:30.899Z,2.00
2018-01-27T16:08:58.736Z,1.70
2018-01-27T16:11:27.338Z,2.47
2018-01-27T16:13:55.930Z,2.93
2018-01-27T16:16:23.751Z,2.20
2018-01-27T16:18:51.608Z,2.40
2018-01-27T16:21:19.470Z,2.13
2018-01-27T16:23:47.295Z,2.23
2018-01-27T16:26:16.914Z,1.50
2018-01-27T16:28:44.731Z,1.27
2018-01-27T16:31:12.643Z,1.70
2018-01-27T16:33:40.594Z,1.53
2018-01-27T16:36:08.475Z,1.30
2018-01-27T16:38:36.379Z,1.37
2018-01-27T16:41:04.210Z,1.93
2018-01-27T16:43:32.052Z,2.03
2018-01-27T16:46:00.659Z,1.40
2018-01-27T16:48:28.509Z,1.50
2018-01-27T16:50:57.111Z,1.40
2018-01-27T16:53:24.978Z,1.30
2018-01-27T16:55:52.838Z,1.60
2018-01-27T16:58:20.699Z,1.40
2018-01-27T17:00:48.576Z,1.60
2018-01-27T17:03:16.443Z,1.50
2018-01-27T17:05:44.264Z,1.63
2018-01-27T17:08:12.137Z,1.90
2018-01-27T17:10:40.771Z,1.93
2018-01-27T17:13:08.651Z,1.60
2018-01-27T17:15:36.659Z,1.73
2018-01-27T17:18:05.373Z,1.43
2018-01-27T17:20:33.308Z,1.50
2018-01-27T17:23:01.938Z,1.43
2018-01-27T17:25:29.842Z,1.60
2018-01-27T17:27:57.738Z,1.73
2018-01-27T17:30:26.467Z,1.80
2018-01-27T17:32:54.564Z,1.90
2018-01-27T17:35:22.456Z,1.77
2018-01-27T17:37:51.292Z,2.03
2018-01-27T17:40:19.199Z,1.87
2018-01-27T17:42:47.112Z,1.77
2018-01-27T17:45:14.979Z,1.70
2018-01-27T17:47:42.833Z,1.90
2018-01-27T17:50:10.741Z,2.20
2018-01-27T17:52:39.445Z,1.30
2018-01-27T17:55:07.458Z,1.40
2018-01-27T17:57:35.478Z,1.97
2018-01-27T18:00:03.465Z,2.33
2018-01-27T18:02:32.843Z,2.17
2018-01-27T18:05:00.733Z,4.00
2018-01-27T18:07:29.443Z,3.53
2018-01-27T18:09:57.342Z,3.67
2018-01-27T18:12:25.231Z,2.13
2018-01-27T18:15:21.503Z,2.83
2018-01-27T18:17:50.887Z,4.20
2018-01-27T18:20:18.760Z,4.40
2018-01-27T18:22:47.940Z,4.63
2018-01-27T18:25:15.811Z,3.10
2018-01-27T18:27:43.685Z,5.10
2018-01-27T18:30:11.577Z,7.80
2018-01-27T18:42:17.510Z,6.13
2018-01-27T18:48:17.523Z,3.57
2018-01-27T18:50:45.402Z,2.33
2018-01-27T18:53:13.264Z,2.07
2018-01-27T18:55:41.127Z,2.47
2018-01-27T18:58:09.025Z,2.47
2018-01-27T19:00:36.922Z,1.80
2018-01-27T19:03:04.864Z,1.70
2018-01-27T19:37:14.450Z,2.10
2018-01-27T19:39:43.742Z,2.53
2018-01-27T19:46:20.589Z,2.13
2018-01-27T19:48:48.476Z,2.20
2018-01-27T19:58:19.222Z,2.73
2018-01-27T20:00:47.088Z,1.93
2018-01-27T20:03:19.180Z,2.03
2018-01-27T20:05:59.194Z,2.10
2018-01-27T20:08:28.581Z,1.50
2018-01-27T20:11:48.799Z,1.30
2018-01-27T20:14:58.114Z,2.13
2018-01-27T20:31:39.388Z,2.20
2018-01-27T20:34:07.633Z,2.97
2018-01-27T20:36:35.612Z,2.47
2018-01-27T20:39:03.573Z,2.73
2018-01-27T20:41:31.435Z,1.50
2018-01-27T20:54:15.904Z,2.50
2018-01-27T20:56:44.874Z,2.37
2018-01-27T20:59:12.787Z,3.40
2018-01-27T21:01:40.668Z,4.63
2018-01-27T21:04:08.498Z,3.83
2018-01-27T21:06:36.406Z,3.05
2018-01-27T21:09:04.371Z,3.10
2018-01-27T21:11:32.218Z,2.70
2018-01-27T21:14:00.336Z,2.93
2018-01-27T21:16:28.204Z,2.60
2018-01-27T21:18:56.595Z,3.03
2018-01-27T21:21:24.446Z,2.80
2018-01-27T21:23:52.299Z,3.10
2018-01-27T21:26:20.231Z,3.17
2018-01-27T21:28:48.046Z,2.60
2018-01-27T21:31:15.866Z,3.00
2018-01-27T21:33:43.686Z,2.17
2018-01-27T21:36:11.528Z,2.50
2018-01-27T21:38:39.342Z,3.27
2018-01-27T21:41:07.179Z,2.27
2018-01-27T21:43:35.062Z,1.90
2018-01-27T21:46:03.653Z,2.30
2018-01-27T21:48:31.497Z,2.67
2018-01-27T21:50:59.328Z,3.67
2018-01-27T23:29:46.687Z,1.80
2018-01-27T23:32:15.286Z,2.27
2018-01-27T23:34:43.829Z,1.57
2018-01-27T23:37:11.607Z,1.53
2018-01-27T23:39:39.399Z,1.63
2018-01-27T23:42:07.973Z,1.67
2018-01-27T23:44:36.532Z,1.50
2018-01-27T23:47:04.315Z,1.93
2018-01-27T23:49:32.890Z,1.73
2018-01-27T23:52:01.442Z,1.90
2018-01-27T23:54:29.211Z,1.37
2018-01-27T23:56:57.073Z,2.10
2018-01-27T23:59:24.946Z,1.20
